createdAt,value
2019-02-05T00:00:19.700Z,8.70
2019-02-05T00:01:19.679Z,8.30
2019-02-05T00:02:19.683Z,8.30
2019-02-05T00:03:19.655Z,8.50
2019-02-05T00:04:19.644Z,8.60
2019-02-05T00:05:19.643Z,8.60
2019-02-05T00:06:19.626Z,8.40
2019-02-05T00:07:19.736Z,8.70
2019-02-05T00:08:19.602Z,9.00
2019-02-05T00:09:19.596Z,8.60
2019-02-05T00:10:19.590Z,8.10
2019-02-05T00:11:19.571Z,8.30
2019-02-05T00:12:19.564Z,8.40
2019-02-05T00:13:19.554Z,8.30
2019-02-05T00:14:19.549Z,8.50
2019-02-05T00:15:19.537Z,8.10
2019-02-05T00:16:19.519Z,8.70
2019-02-05T00:17:19.508Z,8.70
2019-02-05T00:18:19.497Z,8.80
2019-02-05T00:19:19.488Z,8.40
2019-02-05T00:20:19.488Z,8.30
2019-02-05T00:21:19.469Z,8.30
2019-02-05T00:22:19.454Z,8.50
2019-02-05T00:23:19.444Z,8.50
2019-02-05T00:24:19.434Z,8.40
2019-02-05T00:25:19.438Z,8.10
2019-02-05T00:26:19.416Z,8.30
2019-02-05T00:27:19.402Z,8.50
2019-02-05T00:28:19.391Z,8.20
2019-02-05T00:29:19.381Z,8.10
2019-02-05T00:30:19.380Z,8.90
2019-02-05T00:31:19.361Z,8.10
2019-02-05T00:32:19.349Z,7.90
2019-02-05T00:33:19.340Z,8.70
2019-02-05T00:34:19.328Z,8.50
2019-02-05T00:35:19.331Z,8.20
2019-02-05T00:36:19.308Z,8.70
2019-02-05T00:37:19.298Z,8.30
2019-02-05T00:38:19.287Z,8.50
2019-02-05T00:39:19.276Z,8.20
2019-02-05T00:40:19.273Z,8.50
2019-02-05T00:41:19.255Z,8.00
2019-02-05T00:42:19.244Z,8.20
2019-02-05T00:43:19.236Z,8.70
2019-02-05T00:44:19.224Z,8.40
2019-02-05T00:45:19.221Z,8.00
2019-02-05T00:46:19.202Z,7.80
2019-02-05T00:47:19.194Z,8.10
2019-02-05T00:48:19.182Z,7.80
2019-02-05T00:49:19.229Z,8.10
2019-02-05T00:50:19.167Z,8.10
2019-02-05T00:51:19.150Z,8.10
2019-02-05T00:52:19.139Z,8.00
2019-02-05T00:53:19.128Z,8.50
2019-02-05T00:54:19.120Z,7.90
2019-02-05T00:55:19.115Z,8.10
2019-02-05T00:56:19.097Z,7.70
2019-02-05T00:57:19.086Z,8.10
2019-02-05T00:58:19.075Z,8.30
2019-02-05T00:59:19.067Z,8.60
2019-02-05T01:00:19.062Z,7.90
2019-02-05T01:01:19.044Z,8.20
2019-02-05T01:02:19.033Z,7.60
2019-02-05T01:03:19.022Z,8.00
2019-02-05T01:04:19.119Z,7.70
2019-02-05T01:05:19.011Z,7.80
2019-02-05T01:06:18.991Z,8.10
2019-02-05T01:07:18.980Z,7.60
2019-02-05T01:08:18.971Z,8.00
2019-02-05T01:09:18.959Z,8.20
2019-02-05T01:10:18.958Z,8.20
2019-02-05T01:11:18.938Z,8.30
2019-02-05T01:12:18.928Z,8.10
2019-02-05T01:13:18.918Z,8.10
2019-02-05T01:14:18.906Z,8.20
2019-02-05T01:15:18.904Z,8.10
2019-02-05T01:16:18.885Z,8.20
2019-02-05T01:17:18.875Z,8.30
2019-02-05T01:18:18.863Z,8.10
2019-02-05T01:19:18.853Z,8.30
2019-02-05T01:20:18.850Z,7.90
2019-02-05T01:21:18.832Z,8.20
2019-02-05T01:22:18.823Z,7.80
2019-02-05T01:23:18.811Z,7.90
2019-02-05T01:24:18.802Z,7.90
2019-02-05T01:25:18.800Z,8.10
2019-02-05T01:26:28.629Z,7.80
2019-02-05T01:27:19.771Z,8.30
2019-02-05T01:28:18.759Z,7.60
2019-02-05T01:29:18.749Z,8.60
2019-02-05T01:30:18.747Z,8.30
2019-02-05T01:31:18.727Z,8.20
2019-02-05T01:32:18.716Z,7.50
2019-02-05T01:33:18.705Z,8.50
2019-02-05T01:34:18.696Z,8.20
2019-02-05T01:35:18.692Z,8.40
2019-02-05T01:36:18.680Z,7.60
2019-02-05T01:37:18.662Z,7.90
2019-02-05T01:38:18.653Z,8.10
2019-02-05T01:39:18.641Z,7.80
2019-02-05T01:40:18.740Z,8.20
2019-02-05T01:41:18.624Z,8.40
2019-02-05T01:42:18.613Z,8.00
2019-02-05T01:43:18.601Z,7.60
2019-02-05T01:44:18.594Z,8.10
2019-02-05T01:45:18.578Z,8.20
2019-02-05T01:46:18.579Z,7.90
2019-02-05T01:47:18.561Z,7.70
2019-02-05T01:48:18.546Z,8.20
2019-02-05T01:49:18.538Z,8.00
2019-02-05T01:50:18.529Z,7.70
2019-02-05T01:51:18.526Z,8.00
2019-02-05T01:52:18.508Z,7.90
2019-02-05T01:53:18.494Z,7.30
2019-02-05T01:54:18.484Z,7.80
2019-02-05T01:55:18.474Z,7.80
2019-02-05T01:56:18.473Z,7.80
2019-02-05T01:57:18.453Z,7.70
2019-02-05T01:58:18.441Z,7.90
2019-02-05T01:59:18.430Z,8.30
2019-02-05T02:00:18.422Z,8.20
2019-02-05T02:01:18.417Z,7.90
2019-02-05T02:02:18.399Z,8.30
2019-02-05T02:03:18.393Z,7.40
2019-02-05T02:04:18.378Z,7.70
2019-02-05T02:05:18.481Z,7.90
2019-02-05T02:06:18.378Z,7.60
2019-02-05T02:07:18.347Z,7.90
2019-02-05T02:08:18.336Z,7.50
2019-02-05T02:09:18.325Z,7.80
2019-02-05T02:10:18.315Z,8.00
2019-02-05T02:11:18.317Z,8.30
2019-02-05T02:12:18.293Z,8.00
2019-02-05T02:13:18.283Z,8.30
2019-02-05T02:14:18.273Z,8.10
2019-02-05T02:15:18.262Z,7.80
2019-02-05T02:16:18.263Z,7.60
2019-02-05T02:17:18.243Z,8.30
2019-02-05T02:18:18.233Z,7.90
2019-02-05T02:19:18.221Z,8.00
2019-02-05T02:20:18.210Z,8.30
2019-02-05T02:21:18.207Z,8.10
2019-02-05T02:22:18.188Z,7.90
2019-02-05T02:23:18.185Z,8.50
2019-02-05T02:24:18.168Z,7.80
2019-02-05T02:25:18.156Z,8.10
2019-02-05T02:26:18.155Z,8.00
2019-02-05T02:27:18.137Z,8.50
2019-02-05T02:28:18.127Z,8.20
2019-02-05T02:29:18.119Z,8.30
2019-02-05T02:30:18.105Z,7.70
2019-02-05T02:31:18.102Z,8.50
2019-02-05T02:32:18.085Z,8.50
2019-02-05T02:33:18.074Z,8.60
2019-02-05T02:34:18.069Z,8.40
2019-02-05T02:35:18.051Z,8.60
2019-02-05T02:36:18.050Z,9.00
2019-02-05T02:37:18.032Z,9.10
2019-02-05T02:38:18.021Z,8.60
2019-02-05T02:39:18.009Z,9.00
2019-02-05T02:40:18.004Z,9.00
2019-02-05T02:41:17.999Z,8.50
2019-02-05T02:42:17.976Z,8.20
2019-02-05T02:43:17.968Z,8.50
2019-02-05T02:44:17.957Z,8.20
2019-02-05T02:45:17.950Z,8.20
2019-02-05T02:46:17.950Z,8.60
2019-02-05T02:47:17.928Z,8.20
2019-02-05T02:48:17.914Z,8.60
2019-02-05T02:49:17.907Z,8.20
2019-02-05T02:50:17.893Z,8.30
2019-02-05T02:51:17.891Z,8.20
2019-02-05T02:52:17.873Z,8.40
2019-02-05T02:53:17.865Z,7.80
2019-02-05T02:54:17.851Z,7.80
2019-02-05T02:55:17.849Z,7.70
2019-02-05T02:56:17.845Z,7.30
2019-02-05T02:57:17.820Z,7.90
2019-02-05T02:58:17.809Z,7.20
2019-02-05T02:59:17.801Z,7.80
2019-02-05T03:00:17.788Z,7.60
2019-02-05T03:01:17.785Z,7.70
2019-02-05T03:02:17.767Z,7.70
2019-02-05T03:03:17.757Z,7.70
2019-02-05T03:04:17.747Z,7.80
2019-02-05T03:05:17.734Z,8.30
2019-02-05T03:06:17.736Z,7.30
2019-02-05T03:07:17.716Z,7.50
2019-02-05T03:08:17.703Z,7.70
2019-02-05T03:09:17.694Z,7.70
2019-02-05T03:10:17.685Z,7.40
2019-02-05T03:11:17.682Z,8.00
2019-02-05T03:12:17.661Z,7.50
2019-02-05T03:13:17.653Z,7.40
2019-02-05T03:14:17.639Z,7.50
2019-02-05T03:15:17.629Z,7.70
2019-02-05T03:16:17.629Z,7.30
2019-02-05T03:17:17.625Z,7.50
2019-02-05T03:18:17.598Z,7.50
2019-02-05T03:19:17.587Z,7.90
2019-02-05T03:20:17.577Z,7.40
2019-02-05T03:21:17.574Z,7.60
2019-02-05T03:22:17.561Z,8.00
2019-02-05T03:23:17.547Z,7.80
2019-02-05T03:24:17.536Z,7.50
2019-02-05T03:25:17.526Z,7.40
2019-02-05T03:26:17.524Z,7.70
2019-02-05T03:27:18.401Z,7.60
2019-02-05T03:28:17.492Z,7.70
2019-02-05T03:29:17.486Z,7.40
2019-02-05T03:30:17.475Z,7.40
2019-02-05T03:31:17.473Z,7.00
2019-02-05T03:32:17.453Z,7.40
2019-02-05T03:33:17.445Z,7.30
2019-02-05T03:34:17.429Z,7.60
2019-02-05T03:35:17.418Z,7.60
2019-02-05T03:36:17.417Z,7.50
2019-02-05T03:37:17.407Z,7.80
2019-02-05T03:38:17.389Z,7.20
2019-02-05T03:39:17.377Z,7.90
2019-02-05T03:40:17.365Z,7.50
2019-02-05T03:41:17.363Z,7.70
2019-02-05T03:42:17.344Z,7.40
2019-02-05T03:43:17.334Z,7.40
2019-02-05T03:44:17.324Z,7.50
2019-02-05T03:45:17.313Z,7.20
2019-02-05T03:46:17.318Z,7.30
2019-02-05T03:47:17.292Z,7.40
2019-02-05T03:48:17.283Z,7.10
2019-02-05T03:49:17.269Z,7.60
2019-02-05T03:50:17.259Z,7.10
2019-02-05T03:51:17.278Z,7.10
2019-02-05T03:52:17.238Z,7.20
2019-02-05T03:53:17.228Z,7.50
2019-02-05T03:54:17.217Z,6.90
2019-02-05T03:55:17.214Z,7.60
2019-02-05T03:56:17.197Z,7.00
2019-02-05T03:57:30.424Z,7.20
2019-02-05T03:58:18.174Z,7.40
2019-02-05T03:59:17.164Z,7.40
2019-02-05T04:00:17.154Z,7.30
2019-02-05T04:01:17.144Z,7.20
2019-02-05T04:02:17.146Z,7.00
2019-02-05T04:03:17.123Z,7.00
2019-02-05T04:04:17.111Z,7.60
2019-02-05T04:05:17.100Z,7.00
2019-02-05T04:06:17.091Z,7.30
2019-02-05T04:07:17.089Z,6.70
2019-02-05T04:08:17.070Z,7.10
2019-02-05T04:09:17.065Z,7.20
2019-02-05T04:10:17.049Z,7.20
2019-02-05T04:11:17.039Z,7.00
2019-02-05T04:12:17.036Z,7.40
2019-02-05T04:13:17.015Z,7.00
2019-02-05T04:14:17.007Z,7.40
2019-02-05T04:15:17.000Z,7.30
2019-02-05T04:16:16.984Z,7.10
2019-02-05T04:17:16.984Z,7.00
2019-02-05T04:18:16.965Z,7.70
2019-02-05T04:19:16.954Z,7.50
2019-02-05T04:20:16.945Z,7.30
2019-02-05T04:21:16.931Z,7.50
2019-02-05T04:22:16.928Z,7.30
2019-02-05T04:23:16.911Z,7.10
2019-02-05T04:24:16.899Z,7.10
2019-02-05T04:25:16.892Z,7.50
2019-02-05T04:26:16.880Z,7.30
2019-02-05T04:27:16.877Z,7.40
2019-02-05T04:28:16.858Z,7.40
2019-02-05T04:29:16.849Z,7.40
2019-02-05T04:30:16.836Z,7.30
2019-02-05T04:31:16.825Z,7.50
2019-02-05T04:32:16.824Z,7.40
2019-02-05T04:33:16.804Z,7.30
2019-02-05T04:34:16.795Z,7.70
2019-02-05T04:35:16.786Z,7.60
2019-02-05T04:36:16.774Z,7.60
2019-02-05T04:37:16.770Z,8.20
2019-02-05T04:38:16.752Z,8.00
2019-02-05T04:39:16.742Z,7.80
2019-02-05T04:40:16.732Z,7.70
2019-02-05T04:41:16.720Z,7.60
2019-02-05T04:42:16.794Z,7.60
2019-02-05T04:43:16.699Z,7.50
2019-02-05T04:44:16.689Z,7.30
2019-02-05T04:45:16.680Z,7.80
2019-02-05T04:46:16.668Z,7.70
2019-02-05T04:47:16.669Z,7.80
2019-02-05T04:48:16.645Z,7.80
2019-02-05T04:49:16.642Z,8.30
2019-02-05T04:50:16.627Z,8.90
2019-02-05T04:51:16.615Z,8.60
2019-02-05T04:52:16.615Z,9.20
2019-02-05T04:53:16.598Z,9.00
2019-02-05T04:54:16.582Z,9.10
2019-02-05T04:55:16.571Z,9.60
2019-02-05T04:56:16.564Z,9.50
2019-02-05T04:57:16.559Z,8.90
2019-02-05T04:58:16.541Z,9.40
2019-02-05T04:59:16.530Z,9.30
2019-02-05T05:00:16.519Z,9.10
2019-02-05T05:01:16.510Z,9.50
2019-02-05T05:02:16.589Z,9.70
2019-02-05T05:03:16.496Z,9.80
2019-02-05T05:04:16.476Z,10.30
2019-02-05T05:05:16.466Z,9.70
2019-02-05T05:06:16.455Z,9.90
2019-02-05T05:07:16.448Z,9.60
2019-02-05T05:08:16.445Z,10.10
2019-02-05T05:09:16.424Z,10.10
2019-02-05T05:10:16.415Z,10.20
2019-02-05T05:11:16.402Z,10.50
2019-02-05T05:12:16.395Z,10.40
2019-02-05T05:13:16.389Z,10.40
2019-02-05T05:14:16.371Z,10.00
2019-02-05T05:15:16.363Z,10.30
2019-02-05T05:16:16.350Z,10.80
2019-02-05T05:17:16.341Z,10.80
2019-02-05T05:18:16.336Z,10.30
2019-02-05T05:19:16.318Z,10.40
2019-02-05T05:20:16.312Z,9.40
2019-02-05T05:21:16.298Z,10.30
2019-02-05T05:22:16.289Z,10.20
2019-02-05T05:23:16.286Z,9.90
2019-02-05T05:24:16.266Z,9.90
2019-02-05T05:25:16.254Z,9.40
2019-02-05T05:26:16.243Z,10.00
2019-02-05T05:27:16.236Z,10.10
2019-02-05T05:28:16.232Z,9.70
2019-02-05T05:29:16.212Z,9.70
2019-02-05T05:30:16.203Z,9.90
2019-02-05T05:31:16.197Z,10.10
2019-02-05T05:32:16.184Z,9.60
2019-02-05T05:33:16.178Z,10.00
2019-02-05T05:34:16.162Z,10.10
2019-02-05T05:35:16.152Z,9.60
2019-02-05T05:36:16.139Z,9.90
2019-02-05T05:37:16.131Z,10.10
2019-02-05T05:38:16.126Z,9.60
2019-02-05T05:39:16.107Z,10.20
2019-02-05T05:40:16.097Z,9.70
2019-02-05T05:41:16.087Z,9.90
2019-02-05T05:42:16.077Z,9.40
2019-02-05T05:43:16.072Z,9.90
2019-02-05T05:44:16.056Z,9.30
2019-02-05T05:45:16.044Z,9.90
2019-02-05T05:46:16.034Z,9.70
2019-02-05T05:47:16.029Z,10.20
2019-02-05T05:48:16.023Z,9.90
2019-02-05T05:49:16.005Z,10.50
2019-02-05T05:50:15.998Z,9.70
2019-02-05T05:51:15.980Z,9.50
2019-02-05T05:52:15.970Z,10.10
2019-02-05T05:53:15.968Z,9.50
2019-02-05T05:54:15.960Z,9.80
2019-02-05T05:55:15.944Z,9.80
2019-02-05T05:56:15.930Z,10.70
2019-02-05T05:57:18.668Z,10.10
2019-02-05T05:58:23.038Z,9.70
2019-02-05T05:59:16.903Z,9.80
2019-02-05T06:00:15.889Z,10.30
2019-02-05T06:01:15.877Z,10.40
2019-02-05T06:02:15.865Z,10.50
2019-02-05T06:03:15.864Z,10.70
2019-02-05T06:04:15.843Z,11.40
2019-02-05T06:05:15.837Z,10.90
2019-02-05T06:06:15.821Z,10.90
2019-02-05T06:07:15.815Z,10.80
2019-02-05T06:08:15.810Z,11.00
2019-02-05T06:09:15.792Z,11.00
2019-02-05T06:10:15.779Z,10.90
2019-02-05T06:11:15.768Z,10.50
2019-02-05T06:12:15.758Z,10.60
2019-02-05T06:13:15.761Z,10.50
2019-02-05T06:14:15.740Z,10.60
2019-02-05T06:15:15.730Z,10.30
2019-02-05T06:16:15.717Z,9.80
2019-02-05T06:17:15.720Z,10.10
2019-02-05T06:18:15.707Z,10.50
2019-02-05T06:19:15.684Z,9.50
2019-02-05T06:20:15.674Z,9.90
2019-02-05T06:21:15.663Z,9.50
2019-02-05T06:22:15.655Z,8.70
2019-02-05T06:23:15.654Z,9.60
2019-02-05T06:24:15.633Z,9.80
2019-02-05T06:25:15.629Z,9.30
2019-02-05T06:26:15.610Z,8.80
2019-02-05T06:27:15.600Z,8.80
2019-02-05T06:28:15.604Z,9.30
2019-02-05T06:29:15.583Z,8.80
2019-02-05T06:30:15.570Z,8.80
2019-02-05T06:31:15.561Z,9.30
2019-02-05T06:32:15.549Z,8.90
2019-02-05T06:33:15.545Z,9.30
2019-02-05T06:34:15.526Z,9.10
2019-02-05T06:35:15.518Z,9.30
2019-02-05T06:36:15.508Z,9.10
2019-02-05T06:37:15.503Z,8.90
2019-02-05T06:38:15.493Z,9.40
2019-02-05T06:39:15.474Z,9.00
2019-02-05T06:40:15.463Z,9.10
2019-02-05T06:41:15.594Z,8.90
2019-02-05T06:42:15.444Z,8.70
2019-02-05T06:43:15.439Z,8.50
2019-02-05T06:44:15.424Z,8.00
2019-02-05T06:45:15.410Z,8.50
2019-02-05T06:46:15.399Z,8.40
2019-02-05T06:47:15.390Z,8.30
2019-02-05T06:48:15.394Z,8.50
2019-02-05T06:49:15.367Z,8.90
2019-02-05T06:50:15.357Z,8.40
2019-02-05T06:51:15.346Z,8.80
2019-02-05T06:52:15.339Z,8.50
2019-02-05T06:53:15.326Z,8.90
2019-02-05T06:54:15.327Z,8.70
2019-02-05T06:55:15.305Z,8.80
2019-02-05T06:56:15.295Z,9.00
2019-02-05T06:57:15.283Z,8.10
2019-02-05T06:58:15.277Z,8.70
2019-02-05T06:59:15.270Z,8.40
2019-02-05T07:00:15.251Z,8.80
2019-02-05T07:01:15.241Z,8.90
2019-02-05T07:02:15.231Z,8.90
2019-02-05T07:03:15.221Z,8.50
2019-02-05T07:04:15.218Z,8.80
2019-02-05T07:05:15.200Z,8.80
2019-02-05T07:06:15.190Z,8.90
2019-02-05T07:07:15.178Z,8.90
2019-02-05T07:08:15.166Z,8.50
2019-02-05T07:09:15.166Z,8.70
2019-02-05T07:10:15.145Z,8.80
2019-02-05T07:11:15.136Z,8.50
2019-02-05T07:12:15.125Z,8.90
2019-02-05T07:13:15.114Z,8.70
2019-02-05T07:14:15.112Z,8.90
2019-02-05T07:15:15.096Z,8.60
2019-02-05T07:16:15.083Z,9.00
2019-02-05T07:17:15.074Z,9.00
2019-02-05T07:18:15.061Z,9.10
2019-02-05T07:19:15.059Z,8.40
2019-02-05T07:20:15.040Z,9.20
2019-02-05T07:21:15.029Z,9.10
2019-02-05T07:22:15.019Z,9.20
2019-02-05T07:23:15.011Z,9.20
2019-02-05T07:24:15.006Z,8.50
2019-02-05T07:25:14.989Z,8.70
2019-02-05T07:26:14.976Z,9.10
2019-02-05T07:27:14.966Z,9.00
2019-02-05T07:28:14.957Z,9.50
2019-02-05T07:29:14.954Z,8.90
2019-02-05T07:30:14.935Z,9.20
2019-02-05T07:31:14.923Z,9.00
2019-02-05T07:32:14.912Z,9.40
2019-02-05T07:33:14.904Z,9.30
2019-02-05T07:34:14.899Z,9.80
2019-02-05T07:35:14.883Z,9.90
2019-02-05T07:36:14.871Z,9.70
2019-02-05T07:37:14.858Z,9.10
2019-02-05T07:38:14.849Z,9.20
2019-02-05T07:39:14.846Z,9.70
2019-02-05T07:40:14.826Z,9.10
2019-02-05T07:41:14.818Z,9.00
2019-02-05T07:42:14.806Z,9.40
2019-02-05T07:43:14.797Z,9.50
2019-02-05T07:44:14.792Z,9.70
2019-02-05T07:45:14.774Z,9.50
2019-02-05T07:46:14.762Z,9.30
2019-02-05T07:47:14.752Z,9.70
2019-02-05T07:48:14.742Z,10.40
2019-02-05T07:49:14.740Z,10.10
2019-02-05T07:50:15.594Z,9.60
2019-02-05T07:51:14.710Z,10.10
2019-02-05T07:52:14.700Z,9.90
2019-02-05T07:53:14.688Z,9.90
2019-02-05T07:54:14.714Z,9.70
2019-02-05T07:55:14.668Z,9.80
2019-02-05T07:56:14.657Z,9.40
2019-02-05T07:57:14.647Z,9.00
2019-02-05T07:58:14.637Z,9.50
2019-02-05T07:59:14.625Z,9.30
2019-02-05T08:00:14.623Z,10.00
2019-02-05T08:01:17.514Z,10.00
2019-02-05T08:02:14.593Z,9.80
2019-02-05T08:03:14.583Z,10.10
2019-02-05T08:04:14.575Z,10.00
2019-02-05T08:05:14.570Z,10.30
2019-02-05T08:06:14.550Z,10.10
2019-02-05T08:07:14.540Z,9.60
2019-02-05T08:08:14.530Z,9.80
2019-02-05T08:09:14.533Z,9.60
2019-02-05T08:10:14.515Z,10.30
2019-02-05T08:11:14.521Z,9.90
2019-02-05T08:12:14.486Z,10.60
2019-02-05T08:13:14.475Z,10.50
2019-02-05T08:14:14.469Z,9.90
2019-02-05T08:15:14.465Z,10.20
2019-02-05T08:16:14.443Z,10.60
2019-02-05T08:17:14.434Z,10.40
2019-02-05T08:18:14.424Z,10.30
2019-02-05T08:19:14.410Z,10.10
2019-02-05T08:20:14.408Z,11.10
2019-02-05T08:21:14.389Z,10.20
2019-02-05T08:22:14.377Z,10.20
2019-02-05T08:23:14.367Z,10.50
2019-02-05T08:24:14.358Z,10.90
2019-02-05T08:25:14.356Z,10.80
2019-02-05T08:26:14.335Z,10.60
2019-02-05T08:27:14.324Z,10.90
2019-02-05T08:28:14.313Z,11.00
2019-02-05T08:29:21.431Z,10.70
2019-02-05T08:30:15.302Z,10.90
2019-02-05T08:31:14.281Z,11.40
2019-02-05T08:32:14.270Z,11.20
2019-02-05T08:33:14.269Z,11.00
2019-02-05T08:34:14.248Z,11.50
2019-02-05T08:35:14.238Z,11.10
2019-02-05T08:36:14.236Z,11.40
2019-02-05T08:37:14.217Z,11.50
2019-02-05T08:38:14.208Z,11.80
2019-02-05T08:39:14.194Z,11.50
2019-02-05T08:40:14.184Z,12.20
2019-02-05T08:41:14.183Z,11.70
2019-02-05T08:42:14.164Z,11.80
2019-02-05T08:43:14.154Z,11.80
2019-02-05T08:44:14.141Z,11.70
2019-02-05T08:45:14.370Z,12.40
2019-02-05T08:46:14.130Z,12.50
2019-02-05T08:47:14.117Z,11.30
2019-02-05T08:48:14.098Z,11.90
2019-02-05T08:49:14.087Z,11.30
2019-02-05T08:50:14.077Z,12.00
2019-02-05T08:51:14.077Z,11.80
2019-02-05T08:52:14.056Z,12.10
2019-02-05T08:53:14.043Z,12.40
2019-02-05T08:54:14.033Z,11.80
2019-02-05T08:55:14.021Z,12.20
2019-02-05T08:56:14.024Z,12.00
2019-02-05T08:57:14.000Z,12.10
2019-02-05T08:58:13.990Z,12.60
2019-02-05T08:59:13.979Z,12.70
2019-02-05T09:00:13.969Z,12.40
2019-02-05T09:01:14.618Z,12.50
2019-02-05T09:02:13.950Z,12.30
2019-02-05T09:03:13.938Z,13.00
2019-02-05T09:04:13.927Z,12.30
2019-02-05T09:05:13.915Z,12.70
2019-02-05T09:06:13.913Z,12.30
2019-02-05T09:07:13.906Z,12.00
2019-02-05T09:08:13.882Z,12.50
2019-02-05T09:09:13.926Z,12.30
2019-02-05T09:10:13.861Z,12.50
2019-02-05T09:11:13.859Z,12.40
2019-02-05T09:12:13.843Z,12.70
2019-02-05T09:13:13.827Z,12.60
2019-02-05T09:14:13.818Z,12.60
2019-02-05T09:15:13.807Z,12.40
2019-02-05T09:16:13.805Z,12.90
2019-02-05T09:17:13.787Z,12.50
2019-02-05T09:18:13.774Z,12.10
2019-02-05T09:19:13.766Z,11.90
2019-02-05T09:20:13.753Z,12.40
2019-02-05T09:21:13.749Z,12.30
2019-02-05T09:22:13.731Z,12.40
2019-02-05T09:23:14.480Z,12.40
2019-02-05T09:24:13.711Z,12.00
2019-02-05T09:25:13.701Z,11.50
2019-02-05T09:26:13.700Z,12.10
2019-02-05T09:27:13.679Z,11.80
2019-02-05T09:28:13.673Z,11.90
2019-02-05T09:29:13.657Z,12.50
2019-02-05T09:30:13.647Z,12.40
2019-02-05T09:31:13.643Z,12.30
2019-02-05T09:32:13.625Z,12.60
2019-02-05T09:33:13.616Z,12.60
2019-02-05T09:34:13.604Z,11.90
2019-02-05T09:35:13.593Z,13.20
2019-02-05T09:36:13.590Z,12.40
2019-02-05T09:37:13.574Z,13.10
2019-02-05T09:38:13.560Z,12.70
2019-02-05T09:39:13.552Z,12.70
2019-02-05T09:40:13.540Z,12.10
2019-02-05T09:41:13.541Z,12.10
2019-02-05T09:42:13.520Z,11.80
2019-02-05T09:43:13.514Z,12.50
2019-02-05T09:44:13.497Z,11.70
2019-02-05T09:45:13.487Z,12.30
2019-02-05T09:46:13.484Z,12.10
2019-02-05T09:47:13.468Z,11.80
2019-02-05T09:48:13.455Z,12.10
2019-02-05T09:49:13.444Z,12.40
2019-02-05T09:50:13.434Z,12.10
2019-02-05T09:51:13.429Z,11.90
2019-02-05T09:52:13.411Z,12.50
2019-02-05T09:53:13.400Z,12.20
2019-02-05T09:54:13.391Z,12.30
2019-02-05T09:55:13.379Z,12.60
2019-02-05T09:56:13.378Z,12.10
2019-02-05T09:57:13.358Z,12.40
2019-02-05T09:58:13.348Z,12.00
2019-02-05T09:59:13.336Z,12.10
2019-02-05T10:00:13.326Z,12.50
2019-02-05T10:01:13.328Z,11.90
2019-02-05T10:02:13.304Z,12.30
2019-02-05T10:03:13.297Z,12.20
2019-02-05T10:04:13.287Z,12.00
2019-02-05T10:05:13.273Z,12.20
2019-02-05T10:06:13.270Z,12.50
2019-02-05T10:07:13.253Z,12.00
2019-02-05T10:08:13.240Z,12.40
2019-02-05T10:09:13.230Z,12.20
2019-02-05T10:10:13.219Z,12.70
2019-02-05T10:11:13.218Z,12.60
2019-02-05T10:12:13.200Z,12.90
2019-02-05T10:13:13.190Z,11.80
2019-02-05T10:14:13.179Z,12.60
2019-02-05T10:15:13.166Z,12.80
2019-02-05T10:16:13.164Z,13.10
2019-02-05T10:17:13.146Z,12.40
2019-02-05T10:18:13.140Z,12.80
2019-02-05T10:19:13.124Z,12.60
2019-02-05T10:20:13.113Z,12.40
2019-02-05T10:21:13.111Z,12.80
2019-02-05T10:22:13.093Z,12.80
2019-02-05T10:23:13.085Z,12.80
2019-02-05T10:24:13.069Z,13.00
2019-02-05T10:25:13.060Z,12.30
2019-02-05T10:26:13.056Z,12.80
2019-02-05T10:27:13.038Z,12.70
2019-02-05T10:28:13.032Z,12.80
2019-02-05T10:29:13.016Z,13.00
2019-02-05T10:30:13.005Z,12.90
2019-02-05T10:31:13.004Z,12.90
2019-02-05T10:32:12.999Z,13.40
2019-02-05T10:33:12.981Z,13.30
2019-02-05T10:34:12.963Z,13.10
2019-02-05T10:35:12.952Z,13.10
2019-02-05T10:36:12.950Z,13.50
2019-02-05T10:37:12.931Z,13.90
2019-02-05T10:38:12.920Z,12.80
2019-02-05T10:39:12.909Z,12.90
2019-02-05T10:40:12.898Z,12.80
2019-02-05T10:41:12.897Z,13.50
2019-02-05T10:42:12.877Z,12.90
2019-02-05T10:43:12.866Z,13.00
2019-02-05T10:44:12.859Z,12.70
2019-02-05T10:45:12.845Z,13.20
2019-02-05T10:46:12.834Z,12.70
2019-02-05T10:47:12.836Z,12.80
2019-02-05T10:48:12.813Z,13.00
2019-02-05T10:49:12.802Z,13.20
2019-02-05T10:50:12.793Z,13.10
2019-02-05T10:51:12.782Z,13.70
2019-02-05T10:52:12.779Z,13.80
2019-02-05T10:53:12.763Z,12.90
2019-02-05T10:54:12.749Z,13.00
2019-02-05T10:55:12.747Z,12.50
2019-02-05T10:56:12.728Z,13.50
2019-02-05T10:57:12.728Z,12.80
2019-02-05T10:58:12.706Z,12.60
2019-02-05T10:59:12.696Z,13.10
2019-02-05T11:00:12.686Z,12.90
2019-02-05T11:01:12.687Z,16.40
2019-02-05T11:02:12.672Z,13.50
2019-02-05T11:03:12.661Z,13.40
2019-02-05T11:04:12.641Z,12.70
2019-02-05T11:05:12.635Z,12.60
2019-02-05T11:06:12.621Z,12.60
2019-02-05T11:07:12.619Z,13.00
2019-02-05T11:08:12.601Z,12.60
2019-02-05T11:09:12.591Z,12.50
2019-02-05T11:10:12.579Z,12.70
2019-02-05T11:11:12.568Z,12.70
2019-02-05T11:12:12.565Z,13.10
2019-02-05T11:13:12.547Z,12.80
2019-02-05T11:14:12.536Z,12.90
2019-02-05T11:15:12.524Z,12.90
2019-02-05T11:16:12.518Z,13.10
2019-02-05T11:17:12.519Z,12.90
2019-02-05T11:18:12.494Z,13.20
2019-02-05T11:19:12.482Z,13.30
2019-02-05T11:20:12.472Z,13.20
2019-02-05T11:21:12.461Z,12.80
2019-02-05T11:22:12.460Z,13.00
2019-02-05T11:23:12.440Z,13.00
2019-02-05T11:24:12.429Z,12.50
2019-02-05T11:25:12.456Z,12.80
2019-02-05T11:26:12.410Z,12.90
2019-02-05T11:27:12.406Z,12.10
2019-02-05T11:28:12.390Z,12.50
2019-02-05T11:29:12.377Z,13.00
2019-02-05T11:30:20.065Z,12.40
2019-02-05T11:31:13.354Z,12.90
2019-02-05T11:32:12.355Z,12.90
2019-02-05T11:33:12.338Z,12.70
2019-02-05T11:34:12.323Z,12.00
2019-02-05T11:35:12.312Z,12.70
2019-02-05T11:36:12.302Z,12.30
2019-02-05T11:37:12.300Z,12.30
2019-02-05T11:38:12.283Z,13.10
2019-02-05T11:39:12.271Z,12.30
2019-02-05T11:40:12.260Z,12.60
2019-02-05T11:41:13.713Z,12.60
2019-02-05T11:42:12.246Z,12.80
2019-02-05T11:43:12.229Z,12.40
2019-02-05T11:44:12.218Z,12.30
2019-02-05T11:45:12.206Z,12.60
2019-02-05T11:46:12.196Z,12.80
2019-02-05T11:47:12.193Z,13.00
2019-02-05T11:48:12.174Z,13.20
2019-02-05T11:49:12.163Z,12.80
2019-02-05T11:50:12.152Z,13.40
2019-02-05T11:51:12.144Z,12.90
2019-02-05T11:52:12.140Z,12.90
2019-02-05T11:53:12.121Z,13.10
2019-02-05T11:54:12.123Z,13.40
2019-02-05T11:55:12.100Z,12.80
2019-02-05T11:56:12.088Z,13.20
2019-02-05T11:57:12.087Z,13.30
2019-02-05T11:58:12.067Z,12.60
2019-02-05T11:59:12.089Z,13.20
2019-02-05T12:00:12.046Z,13.00
2019-02-05T12:01:12.035Z,13.00
2019-02-05T12:02:12.033Z,13.00
2019-02-05T12:03:12.016Z,12.90
2019-02-05T12:04:12.002Z,13.40
2019-02-05T12:05:11.992Z,12.80
2019-02-05T12:06:11.982Z,13.40
2019-02-05T12:07:11.982Z,12.90
2019-02-05T12:08:11.962Z,14.00
2019-02-05T12:09:11.948Z,12.70
2019-02-05T12:10:11.939Z,13.00
2019-02-05T12:11:11.927Z,13.50
2019-02-05T12:12:11.925Z,13.50
2019-02-05T12:13:11.911Z,12.50
2019-02-05T12:14:11.896Z,12.90
2019-02-05T12:15:11.883Z,12.90
2019-02-05T12:16:11.873Z,12.90
2019-02-05T12:17:11.870Z,13.00
2019-02-05T12:18:11.852Z,13.20
2019-02-05T12:19:11.841Z,13.10
2019-02-05T12:20:11.835Z,13.20
2019-02-05T12:21:11.819Z,13.70
2019-02-05T12:22:11.815Z,13.30
2019-02-05T12:23:11.800Z,13.30
2019-02-05T12:24:11.786Z,13.80
2019-02-05T12:25:11.774Z,13.70
2019-02-05T12:26:11.765Z,13.70
2019-02-05T12:27:11.762Z,14.30
2019-02-05T12:28:11.743Z,13.60
2019-02-05T12:29:11.733Z,13.50
2019-02-05T12:30:11.721Z,14.10
2019-02-05T12:31:11.711Z,13.60
2019-02-05T12:32:11.708Z,13.70
2019-02-05T12:33:11.697Z,13.50
2019-02-05T12:34:11.677Z,13.60
2019-02-05T12:35:11.668Z,14.20
2019-02-05T12:36:11.659Z,13.10
2019-02-05T12:37:11.685Z,13.70
2019-02-05T12:38:11.634Z,13.30
2019-02-05T12:39:11.624Z,13.80
2019-02-05T12:40:11.613Z,13.00
2019-02-05T12:41:11.603Z,13.40
2019-02-05T12:42:11.595Z,13.60
2019-02-05T12:43:11.588Z,13.40
2019-02-05T12:44:11.569Z,14.00
2019-02-05T12:45:11.558Z,13.20
2019-02-05T12:46:11.547Z,13.40
2019-02-05T12:47:11.536Z,13.20
2019-02-05T12:48:11.534Z,13.40
2019-02-05T12:49:14.679Z,14.40
2019-02-05T12:50:11.505Z,13.50
2019-02-05T12:51:11.497Z,13.90
2019-02-05T12:52:11.483Z,13.30
2019-02-05T12:53:11.479Z,14.10
2019-02-05T12:54:11.460Z,13.70
2019-02-05T12:55:15.130Z,13.60
2019-02-05T12:56:11.438Z,14.20
2019-02-05T12:57:11.427Z,13.50
2019-02-05T12:58:11.424Z,13.20
2019-02-05T12:59:11.407Z,13.20
2019-02-05T13:00:11.401Z,14.10
2019-02-05T13:01:11.402Z,13.60
2019-02-05T13:02:11.376Z,14.00
2019-02-05T13:03:11.373Z,14.50
2019-02-05T13:04:11.351Z,13.50
2019-02-05T13:05:11.341Z,14.00
2019-02-05T13:06:11.333Z,13.30